Athelstane, Wisconsin
Current Conditions -  °F | °C
As of 12:54 PM on Tuesday 21 Oct 2014 (Local Time) from KIMT Reporting Station
Clear Clear  
Wind Chill: 44°   Ceiling: Unl
Heat Index: 47°   Visibility: 10mi
Dew Point: 31°   Wind: 7mph
Humidity: 54%   Direction: 10°N
Pressure: 30.23"   Gusts: NA
Location:  45.42°N, 88.1°W
Report Text: KIMT 211754Z AUTO 01006KT 10SM CLR 08/M01 A3023 RMK AO2 SLP246 T00831006 10083 20044 58004
Loading
Personal Weather Stations






























Interactive Weather Map New forecast layout! Learn more

10-Day Weather Forecast

Advertisements
Track Severe Weather on mobile